Search for airport 
image banner adimage banner adimage banner ad
image banner ad

KIOW - Iowa City Muni

Located in Iowa City, United States

ICAO - IOW, IATA - IOW

Data provided by Airmate  

General information

Coordinates: N41°38'23" W91°32'53"
Elevation is 684 feet MSL.
Magnetic variation is -01° East
View others Airports in Iowa

Operational data

Special qualification required
Current time UTC:
Current local time:
Weather
METAR: KIOW 150752Z AUTO 00000KT 10SM CLR 17/12 A3007 RMK AO2 SLP179 T01670122
View NOTAMs / SUP AIP / TFR affecting this airport [VIEW]
Communications frequencies: [VIEW]

Runways:

RWY identifierQFULength (ft)Width (ft)SurfaceLDA (ft)
0771°5002100CONC5002
25251°5002100CONC4196
12125°390075CONC
30305°390075CONC

Airport contact information

Address: Iowa City United States

Other aviation service providers

Flight schools

Jet Air, Inc.

Jet Air, Inc.
info@jetairinc.com+1(319)248-1200

Satellite view of KIOW